Timeline UpdatesTrip UpdatesNews PostsPvt PostsTravel TipsAdmin PostsConv PostsFollowed PostsChat RequestsBlog PostsPNR Posts

Disclaimer
Search
 
 
Thu Aug 21, 2014 05:55:06 ISTHomeTrainsΣChainsAtlasPNRForumGalleryNewsFAQTripsMembersLoginFeedback
No Recent News for this Train
Other Trains in the News **new
Latest...
Being regularised as 22982 w.e.f. 09.04.2013
Thu Apr 04, 2013 (07:17PM)
⇐ Return Journey: Train# 09734

09733/Hanumangarh - Kota Special

TRAIN IS CANCELLED
Change Departure Station:
Change Arrival Station:
Post a Train Travel TipPost a Train Travel Tip **new
Post a Comment/Question/Picture/VideoPost a Comment/Question/Picture/Video
Pantry/Catering
???
Loco/Rake Reversals
SWM/Sawai Madhopur Junction (4);
RSA - Rake Sharing
Rake/Coach Composition
Entry# 179857 Author: vishal gupta :; 2A-1; 3A-1; SL-5; UR-6; SLR-2; TOTAL 15 coaches.
Loco
News    PNR    Forum    Time-Table    Availability    Fare Chart    Map    Arr/Dep History    Trips    Gallery    ΣChains    X/O    Timeline    
Travel Time: 14h 50m    22 halts    Distance: 852 km    Avg Speed: 57 km/hr
Type: Mail/Express
Zone: NWR/North Western
Departs @ 18:55
Platform# 1
SMTWTFS
Hanumangarh Junction/HMH 
Arrives @ 09:45 +1 night
Platform# ???
SMTWTFS
Kota Junction/KOTA 

22 halts. 90 intermediate Stations between Hanumangarh Junction and Kota Junction

Hide intermediate Stations  

#CodeStation NameX/OArrivesAvgDepartsAvgHaltPFDay#KmSpeedElevZoneAddress
1HMH»Hanumangarh Junction (4)»  -18:55-110.067184mNWRHanumangarh, Rajasthan
1.1DBIDabli Rathan  19:07-19:07-  113.0 67182mNWRHanumangarh, Rajasthan
2PGKPili Bangan  19:18-19:20-2m--125.760176mNWRPilibanga, Rajasthan
2.1AMPRAmarpura Rathan  19:28-19:28-  133.5 60176mNWRMDR 103, Rajasthan
2.2RMHRangmahal  19:36-19:36-  141.5 60177mNWRSri Ganganagar, Rajasthan
3SOGSuratgarh Junction (5)  19:45-19:50-5m--150.674170mNWRSuratgarh, Rajasthan
3.1PPRNPipran  19:56-19:56-  157.6 74180mNWRNational Highway 15, Rajasthan
3.2BDWLBiradhwal  20:04-20:04-  168.2 74189mNWRNational Highway 15, Rajasthan
3.3RJSRajiyasar  20:15-20:15-  181.7 74193mNWRBiradhwal, Rajasthan
3.4ASArjansar  20:28-20:28-  197.1 74205mNWRBikaner, Rajasthan
4MHJMahajan  20:41-20:43-2m--1113.276199mNWRMahajan, Rajasthan
4.1MLCMalkisar  20:57-20:57-  1131.1 76198mNWRBikaner, Rajasthan
4.2NTZNathwana  21:05-21:05-  1140.8 76197mNWRMalkisar, Rajasthan
5LKSLunkaransar  21:14-21:16-2m--1152.676194mNWRLunkaransar, Rajasthan
5.1DLCDalmera  21:26-21:26-  1165.9 76203mNWRBikaner, Rajasthan
5.2DHRRDhirera  21:34-21:34-  1175.2 76190mNWRBikaner, Rajasthan
5.3BMNLBaman Wali Halt  21:40-21:40-  1182.8 76193mNWRBaman Wali, Rajasthan
5.4JDLJagdevwala  21:45-21:45-  1189.5 76186mNWRNational Highway 15, Rajasthan
5.5JMSJamsar  21:54-21:54-  1200.8 76186mNWRBikaner, Rajasthan
5.6KNSRKanasar  22:06-22:06-  1216.6 76209mNWRLalgarh, Rajasthan
6LGHLalgarh Junction  22:16-22:18-2m--1228.79225mNWRBikaner, Rajasthan
7BKNBikaner Junction (6)  22:45-23:00-15m--1232.660226mNWRBikaner City, Rajasthan
7.1UMSUdramsar  23:14-23:14-  1246.4 60241mNWRBikaner, Rajasthan
7.2PAEPalana  23:23-23:23-  1255.3 60263mNWRBikaner, Rajasthan
7.3DSODeshnoke (1)  23:32-23:32-  1264.6 60274mNWRDeshnok, Rajasthan
7.4SPOSurpura  23:47-23:47-  1279.4 60286mNWRBikaner, Rajasthan
8NOKGarhnokha  00:04-00:06-2m--2296.77097mNWRNokha, Rajasthan
8.1CLOChilo  00:18-00:18-  2310.5 70304mNWRNational Highway 89, Rajasthan
8.2SBLJShri Balaji  00:21-00:21-  2313.9 70296mNWRNational Highway 89, Rajasthan
8.3ALAIAlai  00:31-00:31-  2325.5 70289mNWRAlai, Rajasthan
8.4BWSBadwasi  00:38-00:38-  2333.7 70276mNWRMDR 69, Rajasthan
9NGONagaur  00:50-00:53-3m12348.471299mNWRNagaur, Rajasthan
9.1MDWMarwar Mundwa  01:08-01:08-  2366.0 71334mNWRMundwa, Rajasthan
9.2KJWKhajwana  01:21-01:21-  2381.7 71329mNWRKhajwana, Rajasthan
9.3DSLDeswal  01:29-01:29-  2390.8 71325mNWRNagaur, Rajasthan
9.4MCPEMarwar Chapri  01:35-01:35-  2398.5 71317mNWRKheduli, Rajasthan
9.5MTDMerta Road Junction (4)  01:41-01:41-  2405.3 71322mNWRPhalodi, Rajasthan
9.6KQWKheduli (1)  01:54-01:54-  2420.7 71307mNWRRen, Rajasthan
9.7RENRen  01:56-01:56-  2422.7 71307mNWRNagaur, Rajasthan
9.8JACJalsu  02:07-02:07-  2436.4 71321mNWRNagaur, Rajasthan
9.9JACNJalsu Nanak  02:12-02:12-  2442.0 71331mNWRREN, Rajasthan
10DNADegana Junction (4)  02:18-02:21-3m--2449.474339mNWRDegana, Rajasthan
10.1GCHGachhipura  02:33-02:33-  2464.4 74362mNWRNagaur, Rajasthan
10.2BSRLBesroli  02:42-02:42-  2475.7 74378mNWRNagaur, Rajasthan
10.3BOWBorawar  02:52-02:52-  2487.6 74403mNWRBesrol, Rajasthan
11MKNMakrana Junction (2)  02:56-02:59-3m--2492.872423mNWRMakrana, Rajasthan
11.1KMNCKuchaman City  03:11-03:11-  2506.9 72404mNWRPalari, Rajasthan
11.2THMRThathana Mithri  03:15-03:15-  2511.7 72388mNWRNawa City, Rajasthan
11.3NYKNaya Kharadia  03:18-03:18-  2516.0 72375mNWRMakrana, Rajasthan
12NACNawa City  03:24-03:26-2m--2522.635390mNWRNawa, Rajasthan
12.1GVMRGovindi Marwar  03:42-03:42-  2531.8 35373mNWRSambhar Lake, Rajasthan
12.2GAGudha (1)  04:00-04:00-  2542.5 35365mNWRPhulera, Rajasthan
13SBRSambhar Lake  04:13-04:15-2m--2550.221368mNWRSambhar, Rajasthan
14FLPhulera Junction (5)  04:35-04:37-2m--2557.469386mNWRPhulera, Rajasthan
14.1HDAHirnoda  04:45-04:45-  2566.0 69400mNWRJaipur, Rajasthan
14.2DHNDDhinda  04:48-04:48-  2570.1 69386mNWRMDR 59, Rajasthan
15JOBAsalpur Jobner  04:53-04:54-1m--2575.761379mNWRJaipur, Rajasthan
15.1BOBSBobas  05:01-05:01-  2583.1 61396mNWRJaipur, Rajasthan
15.2SHNXSheo Singh Pura  05:08-05:08-  2590.0 61411mNWRJaipur, Rajasthan
15.3DNKDhanakya  05:12-05:12-  2593.8 61418mNWRJaipur, Rajasthan
15.4BDYKBindayaka  05:16-05:16-  2598.4 61411mNWRJaipur, Rajasthan
15.5KKUKanakpura  05:21-05:21-  2603.6 61429mNWRJaipur, Rajasthan
16JPJaipur Junction (7)  05:30-05:45-15m--2612.449434mNWRJaipur, Rajasthan
16.1BSGDBais Godam  05:48-05:48-  2614.7 49425mNWRJaipur, Rajasthan
17DPADurgapura (3)  05:54-05:57-3m--2619.893400mNWRJaipur, Rajasthan
17.1SNGNSanganer  06:00-06:00-  2624.8 93383mNWRJaipur, Rajasthan
17.2SASShivdaspura Padampura  06:11-06:11-  2641.3 93335mNWRJaipur, Rajasthan
17.3CKSChaksu  06:20-06:20-  2655.2 93319mNWRDist. Jaipur, Rajasthan
17.4CHNNChannani  06:27-06:27-  2665.6 93326mNWRChaksu, Rajasthan
18BNLWBansthali Niwai (2)  06:35-06:37-2m--2678.569315mNWRMaharajpura, Rajasthan
18.1SRASSiras  06:51-06:51-  2694.3 69270mNWRIsarda, Rajasthan
18.2ISAIsarda  07:00-07:00-  2704.5 69271mNWRMDR 111, Rajasthan
18.3SURLSureli  07:07-07:07-  2713.1 69258mNWRDevpura, Rajasthan
19CKBChauth ka Barwara (1)  07:15-07:17-2m--2722.247272mNWRSawai Madhopur, Rajasthan
19.1DPZDevpura (1)  07:31-07:31-  2733.3 47271mNWRSawai Madhopur, Rajasthan
20SWMSawai Madhopur Junction (4)07:45-08:10-25m--2744.184266mWCRSawai Madhopur, Rajasthan
20.1KTAKushtala  08:15-08:15-  2751.2 84283mWCRNH 116, Rajasthan
20.2RWJRawania Dungar  08:21-08:21-  2759.7 84266mWCRSawai Madhopur, Rajasthan
20.3AMLIAmli  08:27-08:27-  2767.3 84233mWCRSawai Madhopur, Rajasthan
21IDGIndargarh Sumerganj Mandi (2)  08:36-08:38-2m--2780.366247mWCRIndargarh, Rajasthan
22LKELakheri (3)  08:48-08:50-2m--2791.394228mWCRBundi, Rajasthan
22.1LBNLaban (2)  08:55-08:55-  2798.9 94225mWCRBundi, Rajasthan
22.2GKBGhataka Varana  09:01-09:01-  2808.2 94232mWCRSH 33, Rajasthan
22.3KPZKapren  09:07-09:07-  2818.3 94234mWCRKota - Lalsot Mega Highway, Rajasthan
22.4AREArnetha  09:13-09:13-  2827.5 94239mWCRShreepura, Rajasthan
23KPTNKeshorai Patan  09:20-09:22-2m--2838.435243mWCRSH 33, Rajasthan
23.1GNCNGurla N Cabin  09:31-09:31-  2843.7 35249mWCRGudla, Rajasthan
23.2GQLNGurla North  09:32-09:32-  2844.4 35248mWCRKota - Lalsot Mega Highway, Rajasthan
23.3GQLWGurla West  09:34-09:34-  2845.5 35249mWCRGurla, Rajasthan
23.4GQLGurla  09:36-09:36-  2846.4 35251mWCRSH 33, Rajasthan
23.5KCCNKota C Cabin  09:42-09:42-  2850.2 35246mWCRKota, Rajasthan
24KOTA•Kota Junction (5)•  09:45----2851.9-256mWCRKota, Rajasthan
Scroll to Top
Scroll to Bottom